createdAt,value
2018-07-03T00:00:14.413Z,23.60
2018-07-03T00:02:42.688Z,23.60
2018-07-03T00:05:10.994Z,23.60
2018-07-03T00:10:09.526Z,23.60
2018-07-03T00:12:37.931Z,23.70
2018-07-03T00:15:06.558Z,23.70
2018-07-03T00:17:34.970Z,23.70
2018-07-03T00:20:03.374Z,23.70
2018-07-03T00:22:31.660Z,23.70
2018-07-03T00:24:59.946Z,23.70
2018-07-03T00:27:28.250Z,23.60
2018-07-03T00:29:56.566Z,23.60
2018-07-03T00:34:52.880Z,23.60
2018-07-03T00:37:21.150Z,23.60
2018-07-03T00:39:49.432Z,23.60
2018-07-03T00:42:17.724Z,23.60
2018-07-03T00:44:46.016Z,23.70
2018-07-03T00:47:14.296Z,23.70
2018-07-03T00:49:42.602Z,23.60
2018-07-03T00:52:10.884Z,23.70
2018-07-03T00:54:39.170Z,23.60
2018-07-03T00:57:07.452Z,23.60
2018-07-03T00:59:41.900Z,23.60
2018-07-03T01:02:10.213Z,23.60
2018-07-03T01:04:38.482Z,23.50
2018-07-03T01:07:06.752Z,23.50
2018-07-03T01:09:35.038Z,23.60
2018-07-03T01:12:03.316Z,23.60
2018-07-03T01:14:31.626Z,23.60
2018-07-03T01:16:59.900Z,23.60
2018-07-03T01:19:28.193Z,23.60
2018-07-03T01:21:56.448Z,23.60
2018-07-03T01:24:24.719Z,23.60
2018-07-03T01:26:53.036Z,23.60
2018-07-03T01:29:21.322Z,23.60
2018-07-03T01:31:49.576Z,23.50
2018-07-03T01:34:17.936Z,23.50
2018-07-03T01:36:46.223Z,23.50
2018-07-03T01:39:14.517Z,23.50
2018-07-03T01:41:42.826Z,23.60
2018-07-03T01:44:22.348Z,23.60
2018-07-03T01:46:50.672Z,23.60
2018-07-03T01:49:18.960Z,23.50
2018-07-03T01:51:47.236Z,23.60
2018-07-03T01:54:15.520Z,23.60
2018-07-03T01:56:43.844Z,23.50
2018-07-03T01:59:12.116Z,23.50
2018-07-03T02:01:41.248Z,23.50
2018-07-03T02:04:09.528Z,23.50
2018-07-03T02:06:37.799Z,23.50
2018-07-03T02:09:09.210Z,23.50
2018-07-03T02:11:37.524Z,23.60
2018-07-03T02:14:06.096Z,23.60
2018-07-03T02:16:34.486Z,23.70
2018-07-03T02:19:02.832Z,23.60
2018-07-03T02:21:31.176Z,23.60
2018-07-03T02:23:59.736Z,23.60
2018-07-03T02:26:28.045Z,23.50
2018-07-03T02:31:24.521Z,23.50
2018-07-03T02:33:53.263Z,23.50
2018-07-03T02:36:21.533Z,23.50
2018-07-03T02:38:49.848Z,23.40
2018-07-03T02:41:18.131Z,23.40
2018-07-03T02:43:46.413Z,23.40
2018-07-03T02:46:14.706Z,23.40
2018-07-03T02:48:42.977Z,23.30
2018-07-03T02:51:11.273Z,23.30
2018-07-03T02:53:39.550Z,23.30
2018-07-03T02:56:07.833Z,23.30
2018-07-03T02:58:36.113Z,23.30
2018-07-03T03:01:04.698Z,23.40
2018-07-03T03:03:32.993Z,23.50
2018-07-03T03:06:01.267Z,23.60
2018-07-03T03:08:29.554Z,23.70
2018-07-03T03:10:57.827Z,23.80
2018-07-03T03:13:26.144Z,23.90
2018-07-03T03:15:54.399Z,23.90
2018-07-03T03:18:22.674Z,24.00
2018-07-03T03:20:50.931Z,24.00
2018-07-03T03:23:19.227Z,24.00
2018-07-03T03:25:47.507Z,24.00
2018-07-03T03:28:15.804Z,24.00
2018-07-03T03:30:44.103Z,23.90
2018-07-03T03:35:40.399Z,23.80
2018-07-03T03:38:08.673Z,23.70
2018-07-03T03:40:36.960Z,23.70
2018-07-03T03:43:05.337Z,23.60
2018-07-03T03:45:33.650Z,23.60
2018-07-03T03:48:01.932Z,23.50
2018-07-03T03:50:30.213Z,23.50
2018-07-03T03:52:58.521Z,23.50
2018-07-03T03:55:26.797Z,23.50
2018-07-03T03:57:55.085Z,23.60
2018-07-03T04:00:23.371Z,23.60
2018-07-03T04:02:51.660Z,23.50
2018-07-03T04:05:20.031Z,23.50
2018-07-03T04:07:48.329Z,23.50
2018-07-03T04:10:16.635Z,23.40
2018-07-03T04:12:44.909Z,23.40
2018-07-03T04:15:13.183Z,23.40
2018-07-03T04:20:09.514Z,23.40
2018-07-03T04:22:37.908Z,23.40
2018-07-03T04:25:06.204Z,23.30
2018-07-03T04:27:34.574Z,23.30
2018-07-03T04:30:02.854Z,23.30
2018-07-03T04:32:31.131Z,23.40
2018-07-03T04:34:59.433Z,23.40
2018-07-03T04:37:27.719Z,23.50
2018-07-03T04:39:56.009Z,23.50
2018-07-03T04:44:52.367Z,23.50
2018-07-03T04:49:48.673Z,23.40
2018-07-03T04:52:16.961Z,23.40
2018-07-03T04:54:45.240Z,23.40
2018-07-03T04:57:13.617Z,23.40
2018-07-03T04:59:41.884Z,23.40
2018-07-03T05:02:10.173Z,23.30
2018-07-03T05:04:38.472Z,23.30
2018-07-03T05:07:06.767Z,23.30
2018-07-03T05:12:03.095Z,23.40
2018-07-03T05:14:31.383Z,23.40
2018-07-03T05:16:59.763Z,23.40
2018-07-03T05:19:29.729Z,23.40
2018-07-03T05:21:58.033Z,23.40
2018-07-03T05:24:26.316Z,23.40
2018-07-03T05:31:51.472Z,23.30
2018-07-03T05:34:19.724Z,23.30
2018-07-03T05:36:48.018Z,23.30
2018-07-03T05:39:16.292Z,23.30
2018-07-03T05:41:44.589Z,23.30
2018-07-03T05:44:12.864Z,23.40
2018-07-03T05:46:41.132Z,23.40
2018-07-03T05:49:09.428Z,23.40
2018-07-03T05:51:37.805Z,23.40
2018-07-03T05:54:06.096Z,23.40
2018-07-03T05:56:34.406Z,23.40
2018-07-03T05:59:02.655Z,23.30
2018-07-03T06:01:30.992Z,23.30
2018-07-03T06:03:59.273Z,23.30
2018-07-03T06:06:27.558Z,23.30
2018-07-03T06:08:55.834Z,23.30
2018-07-03T06:11:24.126Z,23.30
2018-07-03T06:13:52.518Z,23.30
2018-07-03T06:16:20.796Z,23.20
2018-07-03T06:18:49.095Z,23.20
2018-07-03T06:21:17.390Z,23.20
2018-07-03T06:23:45.697Z,23.20
2018-07-03T06:26:13.976Z,23.30
2018-07-03T06:28:42.264Z,23.40
2018-07-03T06:31:10.562Z,23.40
2018-07-03T06:33:38.834Z,23.40
2018-07-03T06:36:07.432Z,23.40
2018-07-03T06:38:35.722Z,23.40
2018-07-03T06:41:03.988Z,23.40
2018-07-03T06:43:32.264Z,23.30
2018-07-03T06:46:00.536Z,23.30
2018-07-03T06:48:28.806Z,23.30
2018-07-03T06:50:57.096Z,23.30
2018-07-03T06:53:25.395Z,23.30
2018-07-03T06:55:53.700Z,23.20
2018-07-03T06:58:21.980Z,23.20
2018-07-03T07:00:50.263Z,23.20
2018-07-03T07:03:18.528Z,23.20
2018-07-03T07:05:46.816Z,23.30
2018-07-03T07:08:15.111Z,23.40
2018-07-03T07:10:43.374Z,23.40
2018-07-03T07:13:11.674Z,23.40
2018-07-03T07:15:40.068Z,23.40
2018-07-03T07:18:08.337Z,23.40
2018-07-03T07:20:36.608Z,23.40
2018-07-03T07:25:32.979Z,23.30
2018-07-03T07:28:01.265Z,23.30
2018-07-03T07:30:29.565Z,23.30
2018-07-03T07:32:57.845Z,23.30
2018-07-03T07:35:26.133Z,23.20
2018-07-03T07:37:54.417Z,23.20
2018-07-03T07:40:22.714Z,23.20
2018-07-03T07:42:50.999Z,23.30
2018-07-03T07:45:19.284Z,23.30
2018-07-03T07:47:47.630Z,23.40
2018-07-03T07:50:15.902Z,23.50
2018-07-03T07:52:44.178Z,23.50
2018-07-03T07:55:12.453Z,23.50
2018-07-03T07:57:40.739Z,23.40
2018-07-03T08:00:10.534Z,23.40
2018-07-03T08:02:38.807Z,23.30
2018-07-03T08:05:07.301Z,23.30
2018-07-03T08:07:35.562Z,23.30
2018-07-03T08:10:04.069Z,23.30
2018-07-03T08:12:35.389Z,23.30
2018-07-03T08:15:03.669Z,23.30
2018-07-03T08:17:31.936Z,23.20
2018-07-03T08:20:00.221Z,23.20
2018-07-03T08:22:28.490Z,23.30
2018-07-03T08:24:56.772Z,23.30
2018-07-03T08:27:25.068Z,23.40
2018-07-03T08:29:53.332Z,23.40
2018-07-03T08:32:21.629Z,23.40
2018-07-03T08:34:49.897Z,23.40
2018-07-03T08:37:18.155Z,23.40
2018-07-03T08:39:46.445Z,23.40
2018-07-03T08:42:14.726Z,23.40
2018-07-03T08:52:07.027Z,23.30
2018-07-03T08:54:35.296Z,23.40
2018-07-03T08:57:03.601Z,23.40
2018-07-03T08:59:31.960Z,23.40
2018-07-03T09:02:00.253Z,23.40
2018-07-03T09:04:28.673Z,23.40
2018-07-03T09:06:57.197Z,23.40
2018-07-03T09:09:25.484Z,23.40
2018-07-03T09:11:53.752Z,23.40
2018-07-03T09:14:22.063Z,23.40
2018-07-03T09:16:50.369Z,23.30
2018-07-03T09:19:18.648Z,23.30
2018-07-03T09:21:46.917Z,23.30
2018-07-03T09:24:15.189Z,23.40
2018-07-03T09:26:43.476Z,23.40
2018-07-03T09:29:11.823Z,23.40
2018-07-03T09:31:40.087Z,23.40
2018-07-03T09:34:08.353Z,23.40
2018-07-03T09:36:36.629Z,23.40
2018-07-03T09:39:08.056Z,23.40
2018-07-03T09:41:36.793Z,23.40
2018-07-03T09:44:05.079Z,23.40
2018-07-03T09:46:33.365Z,23.30
2018-07-03T09:49:01.629Z,23.30
2018-07-03T09:53:57.912Z,23.30
2018-07-03T09:56:26.175Z,23.30
2018-07-03T09:58:54.454Z,23.30
2018-07-03T10:03:50.733Z,23.30
2018-07-03T10:06:19.017Z,23.30
2018-07-03T10:08:47.295Z,23.40
2018-07-03T10:11:15.565Z,23.40
2018-07-03T10:13:43.855Z,23.50
2018-07-03T10:16:12.123Z,23.60
2018-07-03T10:18:40.425Z,23.70
2018-07-03T10:21:08.684Z,23.70
2018-07-03T10:23:36.947Z,23.70
2018-07-03T10:26:05.246Z,23.60
2018-07-03T10:28:33.511Z,23.60
2018-07-03T10:31:01.893Z,23.60
2018-07-03T10:33:30.225Z,23.60
2018-07-03T10:35:58.600Z,23.60
2018-07-03T10:38:26.861Z,23.50
2018-07-03T10:43:23.147Z,23.50
2018-07-03T10:45:51.399Z,23.40
2018-07-03T10:48:19.666Z,23.50
2018-07-03T10:50:47.935Z,23.50
2018-07-03T10:53:16.225Z,23.50
2018-07-03T10:55:44.500Z,23.50
2018-07-03T10:58:12.871Z,23.50
2018-07-03T11:00:41.171Z,23.50
2018-07-03T11:03:09.433Z,23.50
2018-07-03T11:05:37.748Z,23.50
2018-07-03T11:08:05.973Z,23.50
2018-07-03T11:10:34.259Z,23.50
2018-07-03T11:13:02.543Z,23.40
2018-07-03T11:15:30.862Z,23.40
2018-07-03T11:17:59.166Z,23.40
2018-07-03T11:20:27.466Z,23.50
2018-07-03T11:22:55.872Z,23.50
2018-07-03T11:25:24.167Z,23.50
2018-07-03T11:27:52.418Z,23.50
2018-07-03T11:30:20.706Z,23.50
2018-07-03T11:32:49.020Z,23.50
2018-07-03T11:35:17.390Z,23.50
2018-07-03T11:37:46.013Z,23.50
2018-07-03T11:40:14.252Z,23.40
2018-07-03T11:42:42.789Z,23.40
2018-07-03T11:45:11.094Z,23.40
2018-07-03T11:50:07.642Z,23.40
2018-07-03T11:52:36.452Z,23.40
2018-07-03T11:55:04.724Z,23.40
2018-07-03T11:57:32.995Z,23.40
2018-07-03T12:00:02.064Z,23.40
2018-07-03T12:02:30.333Z,23.40
2018-07-03T12:04:58.633Z,23.50
2018-07-03T12:07:26.944Z,23.50
2018-07-03T12:09:55.426Z,23.60
2018-07-03T12:12:23.691Z,23.60
2018-07-03T12:14:51.992Z,23.60
2018-07-03T12:17:20.334Z,23.50
2018-07-03T12:19:48.622Z,23.50
2018-07-03T12:22:16.896Z,23.50
2018-07-03T12:24:45.244Z,23.50
2018-07-03T12:27:13.518Z,23.40
2018-07-03T12:29:42.218Z,23.40
2018-07-03T12:32:10.532Z,23.40
2018-07-03T12:34:38.810Z,23.40
2018-07-03T12:37:07.125Z,23.40
2018-07-03T12:39:35.401Z,23.50
2018-07-03T12:42:03.654Z,23.50
2018-07-03T12:44:32.040Z,23.50
2018-07-03T12:47:00.312Z,23.50
2018-07-03T12:49:28.601Z,23.50
2018-07-03T12:51:56.902Z,23.50
2018-07-03T12:54:25.174Z,23.60
2018-07-03T12:56:53.436Z,23.60
2018-07-03T12:59:21.716Z,23.60
2018-07-03T13:04:17.984Z,23.60
2018-07-03T13:06:46.280Z,23.50
2018-07-03T13:09:14.548Z,23.50
2018-07-03T13:11:42.816Z,23.50
2018-07-03T13:14:11.148Z,23.40
2018-07-03T13:16:39.668Z,23.40
2018-07-03T13:19:07.981Z,23.40
2018-07-03T13:21:36.266Z,23.40
2018-07-03T13:24:04.586Z,23.40
2018-07-03T13:26:32.866Z,23.40
2018-07-03T13:29:01.144Z,23.50
2018-07-03T13:31:29.598Z,23.50
2018-07-03T13:33:57.878Z,23.50
2018-07-03T13:36:26.207Z,23.50
2018-07-03T13:38:54.442Z,23.50
2018-07-03T13:41:22.725Z,23.50
2018-07-03T13:43:51.027Z,23.50
2018-07-03T13:46:19.304Z,23.50
2018-07-03T13:48:47.599Z,23.50
2018-07-03T13:51:15.877Z,23.50
2018-07-03T13:53:44.143Z,23.40
2018-07-03T13:56:12.405Z,23.40
2018-07-03T13:58:40.696Z,23.40
2018-07-03T14:01:08.972Z,23.30
2018-07-03T14:06:05.252Z,23.40
2018-07-03T14:08:33.540Z,23.50
2018-07-03T14:11:01.805Z,23.50
2018-07-03T14:13:30.099Z,23.50
2018-07-03T14:15:58.385Z,23.50
2018-07-03T14:18:27.414Z,23.50
2018-07-03T14:20:58.388Z,23.50
2018-07-03T14:23:27.489Z,23.50
2018-07-03T14:25:55.768Z,23.50
2018-07-03T14:28:24.023Z,23.50
2018-07-03T14:30:52.341Z,23.40
2018-07-03T14:33:21.021Z,23.40
2018-07-03T14:35:49.293Z,23.40
2018-07-03T14:38:17.585Z,23.40
2018-07-03T14:40:45.877Z,23.40
2018-07-03T14:43:14.160Z,23.50
2018-07-03T14:45:42.454Z,23.50
2018-07-03T14:48:14.532Z,23.50
2018-07-03T14:50:42.828Z,23.50
2018-07-03T14:53:11.101Z,23.50
2018-07-03T14:55:39.388Z,23.50
2018-07-03T14:58:07.704Z,23.50
2018-07-03T15:03:04.124Z,23.50
2018-07-03T15:05:32.495Z,23.40
2018-07-03T15:08:00.778Z,23.40
2018-07-03T15:10:29.045Z,23.50
2018-07-03T15:12:57.372Z,23.50
2018-07-03T15:15:26.114Z,23.60
2018-07-03T15:17:54.396Z,23.70
2018-07-03T15:20:22.727Z,23.70
2018-07-03T15:22:50.977Z,23.70
2018-07-03T15:25:19.302Z,23.60
2018-07-03T15:27:47.565Z,23.60
2018-07-03T15:30:17.041Z,23.60
2018-07-03T15:32:45.318Z,23.50
2018-07-03T15:35:13.643Z,23.50
2018-07-03T15:37:41.949Z,23.50
2018-07-03T15:40:10.294Z,23.50
2018-07-03T15:42:38.582Z,23.40
2018-07-03T15:45:10.639Z,23.40
2018-07-03T15:47:38.924Z,23.40
2018-07-03T15:50:08.406Z,23.50
2018-07-03T15:52:36.695Z,23.50
2018-07-03T15:55:05.336Z,23.50
2018-07-03T15:57:33.621Z,23.50
2018-07-03T16:00:01.885Z,23.50
2018-07-03T16:02:30.157Z,23.50
2018-07-03T16:07:43.198Z,23.50
2018-07-03T16:12:39.490Z,23.50
2018-07-03T16:15:08.215Z,23.60
2018-07-03T16:17:36.522Z,23.60
2018-07-03T16:20:10.725Z,23.60
2018-07-03T16:22:39.306Z,23.70
2018-07-03T16:25:08.041Z,23.70
2018-07-03T16:27:37.268Z,23.70
2018-07-03T16:30:06.839Z,23.80
2018-07-03T16:32:35.134Z,23.70
2018-07-03T16:35:03.404Z,23.70
2018-07-03T16:37:31.715Z,23.70
2018-07-03T16:40:00.076Z,23.70
2018-07-03T16:42:28.352Z,23.70
2018-07-03T16:44:56.640Z,23.70
2018-07-03T16:49:52.915Z,23.60
2018-07-03T16:52:21.209Z,23.60
2018-07-03T16:54:49.496Z,23.60
2018-07-03T16:57:17.786Z,23.60
2018-07-03T16:59:46.061Z,23.60
2018-07-03T17:02:14.391Z,23.70
2018-07-03T17:04:42.756Z,23.70
2018-07-03T17:07:11.189Z,23.70
2018-07-03T17:09:39.488Z,23.80
2018-07-03T17:12:07.765Z,23.70
2018-07-03T17:14:36.041Z,23.70
2018-07-03T17:17:04.333Z,23.70
2018-07-03T17:19:36.684Z,23.70
2018-07-03T17:22:05.076Z,23.70
2018-07-03T17:24:33.731Z,23.70
2018-07-03T17:27:02.011Z,23.70
2018-07-03T17:29:30.269Z,23.70
2018-07-03T17:31:58.640Z,23.70
2018-07-03T17:34:26.916Z,23.70
2018-07-03T17:36:55.293Z,23.70
2018-07-03T17:39:33.569Z,23.70
2018-07-03T17:42:13.337Z,23.70
2018-07-03T17:44:46.391Z,23.70
2018-07-03T17:47:14.648Z,23.70
2018-07-03T17:49:42.908Z,23.70
2018-07-03T17:52:11.199Z,23.70
2018-07-03T17:54:39.487Z,23.80
2018-07-03T17:57:07.779Z,23.90
2018-07-03T17:59:36.065Z,23.90
2018-07-03T18:02:04.772Z,23.90
2018-07-03T18:04:33.077Z,23.90
2018-07-03T18:07:01.349Z,23.80
2018-07-03T18:09:29.605Z,23.80
2018-07-03T18:11:57.925Z,23.80
2018-07-03T18:14:26.271Z,23.80
2018-07-03T18:16:54.513Z,23.80
2018-07-03T18:19:28.247Z,23.80
2018-07-03T18:21:56.519Z,23.70
2018-07-03T18:24:24.780Z,23.70
2018-07-03T18:26:53.184Z,23.70
2018-07-03T18:29:21.370Z,23.70
2018-07-03T18:31:49.622Z,23.70
2018-07-03T18:34:17.896Z,23.70
2018-07-03T18:36:46.171Z,23.70
2018-07-03T18:39:14.459Z,23.70
2018-07-03T18:41:42.719Z,23.70
2018-07-03T18:44:11.003Z,23.70
2018-07-03T18:46:39.288Z,23.80
2018-07-03T18:49:07.577Z,23.90
2018-07-03T18:51:35.882Z,23.90
2018-07-03T18:56:32.169Z,23.80
2018-07-03T18:59:00.444Z,23.80
2018-07-03T19:01:28.747Z,23.80
2018-07-03T19:03:57.038Z,23.80
2018-07-03T19:06:25.311Z,23.80
2018-07-03T19:08:53.609Z,23.70
2018-07-03T19:11:21.960Z,23.70
2018-07-03T19:13:50.169Z,23.70
2018-07-03T19:21:14.509Z,23.80
2018-07-03T19:23:42.845Z,23.90
2018-07-03T19:26:11.156Z,23.90
2018-07-03T19:28:39.484Z,23.90
2018-07-03T19:31:07.728Z,23.90
2018-07-03T19:33:36.034Z,23.90
2018-07-03T19:36:04.378Z,23.90
2018-07-03T19:38:32.612Z,23.80
2018-07-03T19:41:00.944Z,23.80
2018-07-03T19:43:30.284Z,23.80
2018-07-03T19:45:59.293Z,23.80
2018-07-03T19:48:27.701Z,23.80
2018-07-03T19:53:24.098Z,23.70
2018-07-03T19:55:53.564Z,23.80
2018-07-03T19:58:22.133Z,23.70
2018-07-03T20:00:51.458Z,23.70
2018-07-03T20:03:19.750Z,23.70
2018-07-03T20:08:16.094Z,23.70
2018-07-03T20:10:44.360Z,23.70
2018-07-03T20:13:14.306Z,23.80
2018-07-03T20:15:42.608Z,23.80
2018-07-03T20:18:11.680Z,23.90
2018-07-03T20:20:39.976Z,23.90
2018-07-03T20:23:08.259Z,23.90
2018-07-03T20:25:37.224Z,23.80
2018-07-03T20:28:05.743Z,23.80
2018-07-03T20:33:02.020Z,23.80
2018-07-03T20:35:30.281Z,23.80
2018-07-03T20:37:59.749Z,23.80
2018-07-03T20:40:50.580Z,23.80
2018-07-03T20:43:18.898Z,23.70
2018-07-03T20:45:47.200Z,23.70
2018-07-03T20:48:15.494Z,23.80
2018-07-03T20:50:43.856Z,23.80
2018-07-03T20:53:12.245Z,23.80
2018-07-03T20:55:40.523Z,23.80
2018-07-03T20:58:08.858Z,23.80
2018-07-03T21:00:39.942Z,23.80
2018-07-03T21:03:08.418Z,23.80
2018-07-03T21:05:36.715Z,23.80
2018-07-03T21:08:05.217Z,23.80
2018-07-03T21:10:33.519Z,23.80
2018-07-03T21:13:01.812Z,23.80
2018-07-03T21:15:30.100Z,23.80
2018-07-03T21:17:58.492Z,23.80
2018-07-03T21:20:26.784Z,23.70
2018-07-03T21:22:55.049Z,23.70
2018-07-03T21:25:23.371Z,23.70
2018-07-03T21:27:51.637Z,23.70
2018-07-03T21:30:19.908Z,23.70
2018-07-03T21:32:48.220Z,23.80
2018-07-03T21:35:16.498Z,23.80
2018-07-03T21:37:44.804Z,23.90
2018-07-03T21:40:13.194Z,23.90
2018-07-03T21:42:41.484Z,23.90
2018-07-03T21:45:09.804Z,23.90
2018-07-03T21:47:38.126Z,23.90
2018-07-03T21:50:06.432Z,23.90
2018-07-03T21:52:34.825Z,23.80
2018-07-03T21:55:03.174Z,23.80
2018-07-03T21:57:31.440Z,23.90
2018-07-03T21:59:59.836Z,23.80
2018-07-03T22:02:28.371Z,23.80
2018-07-03T22:04:56.782Z,23.80
2018-07-03T22:07:25.209Z,23.80
2018-07-03T22:09:53.496Z,23.80
2018-07-03T22:12:21.871Z,23.90
2018-07-03T22:14:50.219Z,23.90
2018-07-03T22:17:18.528Z,23.90
2018-07-03T22:19:46.894Z,23.90
2018-07-03T22:24:43.225Z,23.90
2018-07-03T22:27:11.541Z,23.90
2018-07-03T22:29:39.855Z,23.90
2018-07-03T22:32:08.133Z,23.90
2018-07-03T22:34:36.430Z,23.80
2018-07-03T22:37:04.733Z,23.80
2018-07-03T22:39:33.234Z,23.80
2018-07-03T22:42:01.513Z,23.90
2018-07-03T22:44:29.770Z,23.90
2018-07-03T22:46:58.068Z,24.00
2018-07-03T22:49:26.450Z,23.90
2018-07-03T22:51:54.767Z,23.90
2018-07-03T22:56:51.092Z,24.00
2018-07-03T22:59:19.377Z,23.90
2018-07-03T23:01:47.659Z,23.90
2018-07-03T23:04:15.968Z,23.90
2018-07-03T23:09:12.235Z,23.90
2018-07-03T23:14:08.516Z,23.80
2018-07-03T23:16:36.789Z,23.80
2018-07-03T23:19:05.071Z,23.80
2018-07-03T23:21:33.341Z,23.80
2018-07-03T23:24:01.613Z,23.80
2018-07-03T23:26:29.881Z,23.90
2018-07-03T23:28:58.149Z,23.90
2018-07-03T23:31:26.435Z,23.90
2018-07-03T23:33:54.721Z,23.90
2018-07-03T23:36:23.095Z,23.90
2018-07-03T23:38:51.365Z,23.90
2018-07-03T23:41:19.709Z,23.90
2018-07-03T23:43:47.989Z,23.90
2018-07-03T23:46:27.655Z,23.90
2018-07-03T23:49:07.313Z,23.80
2018-07-03T23:51:47.095Z,23.80
2018-07-03T23:54:26.720Z,23.80
2018-07-03T23:57:06.423Z,23.80
2018-07-03T23:59:45.951Z,23.80
